sensor_id;sensor_type;location;lat;lon;timestamp;P1;durP1;ratioP1;P2;durP2;ratioP2
63817;SDS011;53093;55.092;73.476;2022-11-20T00:00:34;13.07;;;4.57;;
63817;SDS011;53093;55.092;73.476;2022-11-20T00:03:12;12.18;;;3.92;;
63817;SDS011;53093;55.092;73.476;2022-11-20T00:05:53;10.07;;;4.28;;
63817;SDS011;53093;55.092;73.476;2022-11-20T00:08:30;14.38;;;3.88;;
63817;SDS011;53093;55.092;73.476;2022-11-20T00:11:15;10.63;;;4.28;;
63817;SDS011;53093;55.092;73.476;2022-11-20T00:13:52;13.48;;;4.20;;
63817;SDS011;53093;55.092;73.476;2022-11-20T00:16:23;10.60;;;3.55;;
63817;SDS011;53093;55.092;73.476;2022-11-20T00:19:02;18.27;;;4.47;;
63817;SDS011;53093;55.092;73.476;2022-11-20T00:21:29;10.90;;;4.30;;
63817;SDS011;53093;55.092;73.476;2022-11-20T00:23:57;10.48;;;2.95;;
63817;SDS011;53093;55.092;73.476;2022-11-20T00:26:27;11.05;;;3.90;;
63817;SDS011;53093;55.092;73.476;2022-11-20T00:29:02;6.80;;;3.35;;
63817;SDS011;53093;55.092;73.476;2022-11-20T00:31:38;14.25;;;3.28;;
63817;SDS011;53093;55.092;73.476;2022-11-20T00:34:11;7.75;;;2.83;;
63817;SDS011;53093;55.092;73.476;2022-11-20T00:36:44;7.40;;;3.13;;
63817;SDS011;53093;55.092;73.476;2022-11-20T00:39:16;9.13;;;3.33;;
63817;SDS011;53093;55.092;73.476;2022-11-20T00:41:45;12.57;;;3.20;;
63817;SDS011;53093;55.092;73.476;2022-11-20T00:44:18;8.40;;;3.08;;
63817;SDS011;53093;55.092;73.476;2022-11-20T00:46:46;7.80;;;3.05;;
63817;SDS011;53093;55.092;73.476;2022-11-20T00:49:14;6.25;;;2.65;;
63817;SDS011;53093;55.092;73.476;2022-11-20T00:51:43;5.68;;;3.17;;
63817;SDS011;53093;55.092;73.476;2022-11-20T00:54:17;7.40;;;2.70;;
63817;SDS011;53093;55.092;73.476;2022-11-20T00:56:46;9.20;;;3.08;;
63817;SDS011;53093;55.092;73.476;2022-11-20T00:59:14;11.20;;;3.10;;
63817;SDS011;53093;55.092;73.476;2022-11-20T01:01:41;10.27;;;3.38;;
63817;SDS011;53093;55.092;73.476;2022-11-20T01:04:08;14.38;;;3.70;;
63817;SDS011;53093;55.092;73.476;2022-11-20T01:06:36;12.50;;;3.75;;
63817;SDS011;53093;55.092;73.476;2022-11-20T01:09:05;12.02;;;4.07;;
63817;SDS011;53093;55.092;73.476;2022-11-20T01:11:42;14.10;;;4.43;;
63817;SDS011;53093;55.092;73.476;2022-11-20T01:14:10;18.23;;;4.45;;
63817;SDS011;53093;55.092;73.476;2022-11-20T01:16:39;11.93;;;3.88;;
63817;SDS011;53093;55.092;73.476;2022-11-20T01:19:07;23.42;;;5.68;;
63817;SDS011;53093;55.092;73.476;2022-11-20T01:21:38;20.52;;;6.28;;
63817;SDS011;53093;55.092;73.476;2022-11-20T01:24:12;22.70;;;5.35;;
63817;SDS011;53093;55.092;73.476;2022-11-20T01:26:46;13.05;;;4.18;;
63817;SDS011;53093;55.092;73.476;2022-11-20T01:29:15;20.08;;;5.72;;
63817;SDS011;53093;55.092;73.476;2022-11-20T01:31:43;15.48;;;4.45;;
63817;SDS011;53093;55.092;73.476;2022-11-20T01:34:11;14.80;;;5.32;;
63817;SDS011;53093;55.092;73.476;2022-11-20T01:36:39;17.52;;;5.07;;
63817;SDS011;53093;55.092;73.476;2022-11-20T01:39:13;19.63;;;5.13;;
63817;SDS011;53093;55.092;73.476;2022-11-20T01:41:40;15.13;;;4.88;;
63817;SDS011;53093;55.092;73.476;2022-11-20T01:44:50;16.25;;;5.07;;
63817;SDS011;53093;55.092;73.476;2022-11-20T01:50:04;14.13;;;5.18;;
63817;SDS011;53093;55.092;73.476;2022-11-20T01:52:56;18.02;;;5.20;;
63817;SDS011;53093;55.092;73.476;2022-11-20T01:55:31;13.43;;;4.35;;
63817;SDS011;53093;55.092;73.476;2022-11-20T01:57:59;18.02;;;4.63;;
63817;SDS011;53093;55.092;73.476;2022-11-20T02:00:27;16.15;;;4.90;;
63817;SDS011;53093;55.092;73.476;2022-11-20T02:02:58;17.08;;;4.93;;
63817;SDS011;53093;55.092;73.476;2022-11-20T02:05:34;15.50;;;4.80;;
63817;SDS011;53093;55.092;73.476;2022-11-20T02:08:03;15.68;;;4.63;;
63817;SDS011;53093;55.092;73.476;2022-11-20T02:10:31;18.35;;;4.70;;
63817;SDS011;53093;55.092;73.476;2022-11-20T02:12:58;24.23;;;7.53;;
63817;SDS011;53093;55.092;73.476;2022-11-20T02:15:48;14.00;;;5.07;;
63817;SDS011;53093;55.092;73.476;2022-11-20T02:18:21;10.27;;;4.35;;
63817;SDS011;53093;55.092;73.476;2022-11-20T02:21:05;18.02;;;4.65;;
63817;SDS011;53093;55.092;73.476;2022-11-20T02:23:58;19.77;;;6.32;;
63817;SDS011;53093;55.092;73.476;2022-11-20T02:26:33;16.05;;;5.13;;
63817;SDS011;53093;55.092;73.476;2022-11-20T02:29:01;17.77;;;5.53;;
63817;SDS011;53093;55.092;73.476;2022-11-20T02:31:29;19.80;;;5.25;;
63817;SDS011;53093;55.092;73.476;2022-11-20T02:34:05;21.10;;;5.25;;
63817;SDS011;53093;55.092;73.476;2022-11-20T02:36:38;21.30;;;4.75;;
63817;SDS011;53093;55.092;73.476;2022-11-20T02:39:06;20.45;;;5.13;;
63817;SDS011;53093;55.092;73.476;2022-11-20T02:41:42;19.58;;;6.07;;
63817;SDS011;53093;55.092;73.476;2022-11-20T02:44:14;17.63;;;6.28;;
63817;SDS011;53093;55.092;73.476;2022-11-20T02:46:42;12.88;;;5.25;;
63817;SDS011;53093;55.092;73.476;2022-11-20T02:49:09;20.08;;;5.85;;
63817;SDS011;53093;55.092;73.476;2022-11-20T02:51:45;23.92;;;5.97;;
63817;SDS011;53093;55.092;73.476;2022-11-20T02:54:12;15.23;;;5.22;;
63817;SDS011;53093;55.092;73.476;2022-11-20T02:56:40;20.98;;;7.93;;
63817;SDS011;53093;55.092;73.476;2022-11-20T02:59:17;21.50;;;6.72;;
63817;SDS011;53093;55.092;73.476;2022-11-20T03:01:44;24.38;;;6.25;;
63817;SDS011;53093;55.092;73.476;2022-11-20T03:04:11;22.23;;;7.00;;
63817;SDS011;53093;55.092;73.476;2022-11-20T03:06:39;28.90;;;8.10;;
63817;SDS011;53093;55.092;73.476;2022-11-20T03:09:07;32.88;;;9.13;;
63817;SDS011;53093;55.092;73.476;2022-11-20T03:11:43;23.73;;;7.55;;
63817;SDS011;53093;55.092;73.476;2022-11-20T03:14:10;27.83;;;8.35;;
63817;SDS011;53093;55.092;73.476;2022-11-20T03:16:37;18.05;;;6.45;;
63817;SDS011;53093;55.092;73.476;2022-11-20T03:19:11;22.33;;;7.25;;
63817;SDS011;53093;55.092;73.476;2022-11-20T03:21:38;24.60;;;7.60;;
63817;SDS011;53093;55.092;73.476;2022-11-20T03:24:05;22.95;;;8.68;;
63817;SDS011;53093;55.092;73.476;2022-11-20T03:26:33;27.23;;;8.93;;
63817;SDS011;53093;55.092;73.476;2022-11-20T03:29:05;27.30;;;8.60;;
63817;SDS011;53093;55.092;73.476;2022-11-20T03:31:34;26.10;;;8.25;;
63817;SDS011;53093;55.092;73.476;2022-11-20T03:34:06;18.70;;;6.75;;
63817;SDS011;53093;55.092;73.476;2022-11-20T03:36:35;20.05;;;6.88;;
63817;SDS011;53093;55.092;73.476;2022-11-20T03:39:04;13.32;;;5.57;;
63817;SDS011;53093;55.092;73.476;2022-11-20T03:41:31;19.17;;;6.63;;
63817;SDS011;53093;55.092;73.476;2022-11-20T03:44:02;23.50;;;7.15;;
63817;SDS011;53093;55.092;73.476;2022-11-20T03:46:30;42.08;;;12.13;;
63817;SDS011;53093;55.092;73.476;2022-11-20T03:49:04;60.55;;;15.20;;
63817;SDS011;53093;55.092;73.476;2022-11-20T03:51:32;62.25;;;15.57;;
63817;SDS011;53093;55.092;73.476;2022-11-20T03:54:00;62.05;;;14.13;;
63817;SDS011;53093;55.092;73.476;2022-11-20T03:56:36;56.70;;;14.35;;
63817;SDS011;53093;55.092;73.476;2022-11-20T03:59:09;38.97;;;10.10;;
63817;SDS011;53093;55.092;73.476;2022-11-20T04:01:36;36.47;;;10.35;;
63817;SDS011;53093;55.092;73.476;2022-11-20T04:04:06;35.45;;;9.60;;
63817;SDS011;53093;55.092;73.476;2022-11-20T04:06:34;27.83;;;7.07;;
63817;SDS011;53093;55.092;73.476;2022-11-20T04:09:01;15.90;;;5.82;;
63817;SDS011;53093;55.092;73.476;2022-11-20T04:11:32;16.27;;;5.47;;
63817;SDS011;53093;55.092;73.476;2022-11-20T04:14:00;12.95;;;5.57;;
63817;SDS011;53093;55.092;73.476;2022-11-20T04:16:31;16.67;;;6.30;;
63817;SDS011;53093;55.092;73.476;2022-11-20T04:19:04;21.23;;;7.32;;
63817;SDS011;53093;55.092;73.476;2022-11-20T04:21:35;25.40;;;7.72;;
63817;SDS011;53093;55.092;73.476;2022-11-20T04:24:02;20.73;;;7.72;;
63817;SDS011;53093;55.092;73.476;2022-11-20T04:26:33;20.35;;;6.63;;
63817;SDS011;53093;55.092;73.476;2022-11-20T04:29:00;15.40;;;5.57;;
63817;SDS011;53093;55.092;73.476;2022-11-20T04:31:31;21.48;;;6.68;;
63817;SDS011;53093;55.092;73.476;2022-11-20T04:33:59;25.35;;;6.65;;
63817;SDS011;53093;55.092;73.476;2022-11-20T04:36:36;35.10;;;9.10;;
63817;SDS011;53093;55.092;73.476;2022-11-20T04:39:04;28.85;;;8.02;;
63817;SDS011;53093;55.092;73.476;2022-11-20T04:41:41;40.97;;;11.48;;
63817;SDS011;53093;55.092;73.476;2022-11-20T04:44:08;32.10;;;9.63;;
63817;SDS011;53093;55.092;73.476;2022-11-20T04:46:39;25.60;;;7.38;;
63817;SDS011;53093;55.092;73.476;2022-11-20T04:49:06;30.27;;;8.05;;
63817;SDS011;53093;55.092;73.476;2022-11-20T04:51:34;28.95;;;8.02;;
63817;SDS011;53093;55.092;73.476;2022-11-20T04:54:01;25.77;;;7.13;;
63817;SDS011;53093;55.092;73.476;2022-11-20T04:56:28;24.55;;;7.22;;
63817;SDS011;53093;55.092;73.476;2022-11-20T04:58:54;17.77;;;5.40;;
63817;SDS011;53093;55.092;73.476;2022-11-20T05:01:22;23.90;;;6.13;;
63817;SDS011;53093;55.092;73.476;2022-11-20T05:03:51;21.88;;;6.75;;
63817;SDS011;53093;55.092;73.476;2022-11-20T05:06:22;17.25;;;5.53;;
63817;SDS011;53093;55.092;73.476;2022-11-20T05:08:49;19.92;;;7.07;;
63817;SDS011;53093;55.092;73.476;2022-11-20T05:11:17;27.55;;;7.15;;
63817;SDS011;53093;55.092;73.476;2022-11-20T05:13:45;22.98;;;6.82;;
63817;SDS011;53093;55.092;73.476;2022-11-20T05:16:12;26.40;;;8.48;;
63817;SDS011;53093;55.092;73.476;2022-11-20T05:18:40;21.98;;;7.65;;
63817;SDS011;53093;55.092;73.476;2022-11-20T05:21:13;18.10;;;6.03;;
63817;SDS011;53093;55.092;73.476;2022-11-20T05:23:41;15.73;;;6.25;;
63817;SDS011;53093;55.092;73.476;2022-11-20T05:26:19;19.35;;;6.90;;
63817;SDS011;53093;55.092;73.476;2022-11-20T05:28:47;21.92;;;6.43;;
63817;SDS011;53093;55.092;73.476;2022-11-20T05:31:16;20.58;;;5.82;;
63817;SDS011;53093;55.092;73.476;2022-11-20T05:33:44;17.38;;;5.97;;
63817;SDS011;53093;55.092;73.476;2022-11-20T05:36:12;16.83;;;4.82;;
63817;SDS011;53093;55.092;73.476;2022-11-20T05:38:50;15.93;;;5.00;;
63817;SDS011;53093;55.092;73.476;2022-11-20T05:41:18;15.52;;;4.88;;
63817;SDS011;53093;55.092;73.476;2022-11-20T05:43:45;12.00;;;4.88;;
63817;SDS011;53093;55.092;73.476;2022-11-20T05:46:17;12.55;;;3.97;;
63817;SDS011;53093;55.092;73.476;2022-11-20T05:48:54;11.32;;;4.05;;
63817;SDS011;53093;55.092;73.476;2022-11-20T05:51:24;15.05;;;4.40;;
63817;SDS011;53093;55.092;73.476;2022-11-20T05:53:51;12.05;;;3.65;;
63817;SDS011;53093;55.092;73.476;2022-11-20T05:56:19;13.00;;;4.35;;
63817;SDS011;53093;55.092;73.476;2022-11-20T05:58:46;9.88;;;3.63;;
63817;SDS011;53093;55.092;73.476;2022-11-20T06:01:15;14.10;;;3.97;;
63817;SDS011;53093;55.092;73.476;2022-11-20T06:03:42;14.98;;;4.10;;
63817;SDS011;53093;55.092;73.476;2022-11-20T06:06:12;14.27;;;4.50;;
63817;SDS011;53093;55.092;73.476;2022-11-20T06:08:49;13.82;;;4.53;;
63817;SDS011;53093;55.092;73.476;2022-11-20T06:11:17;12.25;;;4.13;;
63817;SDS011;53093;55.092;73.476;2022-11-20T06:13:44;11.85;;;4.95;;
63817;SDS011;53093;55.092;73.476;2022-11-20T06:16:11;13.15;;;4.63;;
63817;SDS011;53093;55.092;73.476;2022-11-20T06:18:38;13.38;;;4.47;;
63817;SDS011;53093;55.092;73.476;2022-11-20T06:21:07;14.98;;;4.20;;
63817;SDS011;53093;55.092;73.476;2022-11-20T06:23:34;15.57;;;5.25;;
63817;SDS011;53093;55.092;73.476;2022-11-20T06:26:02;8.57;;;3.70;;
63817;SDS011;53093;55.092;73.476;2022-11-20T06:28:39;13.80;;;4.55;;
63817;SDS011;53093;55.092;73.476;2022-11-20T06:31:09;12.10;;;4.07;;
63817;SDS011;53093;55.092;73.476;2022-11-20T06:33:40;17.35;;;5.45;;
63817;SDS011;53093;55.092;73.476;2022-11-20T06:36:07;14.75;;;5.20;;
63817;SDS011;53093;55.092;73.476;2022-11-20T06:38:34;13.52;;;5.22;;
63817;SDS011;53093;55.092;73.476;2022-11-20T06:41:26;10.95;;;4.07;;
63817;SDS011;53093;55.092;73.476;2022-11-20T06:43:54;12.77;;;5.00;;
63817;SDS011;53093;55.092;73.476;2022-11-20T06:46:21;15.38;;;4.53;;
63817;SDS011;53093;55.092;73.476;2022-11-20T06:48:49;9.07;;;3.53;;
63817;SDS011;53093;55.092;73.476;2022-11-20T06:51:16;8.85;;;4.10;;
63817;SDS011;53093;55.092;73.476;2022-11-20T06:53:43;10.90;;;3.95;;
63817;SDS011;53093;55.092;73.476;2022-11-20T06:56:10;10.50;;;3.35;;
63817;SDS011;53093;55.092;73.476;2022-11-20T06:58:37;9.23;;;3.20;;
63817;SDS011;53093;55.092;73.476;2022-11-20T07:01:09;10.13;;;4.63;;
63817;SDS011;53093;55.092;73.476;2022-11-20T07:03:48;8.77;;;3.75;;
63817;SDS011;53093;55.092;73.476;2022-11-20T07:06:15;15.15;;;5.47;;
63817;SDS011;53093;55.092;73.476;2022-11-20T07:08:42;13.02;;;5.40;;
63817;SDS011;53093;55.092;73.476;2022-11-20T07:11:11;9.55;;;3.85;;
63817;SDS011;53093;55.092;73.476;2022-11-20T07:13:38;8.90;;;3.53;;
63817;SDS011;53093;55.092;73.476;2022-11-20T07:16:06;8.18;;;3.03;;
63817;SDS011;53093;55.092;73.476;2022-11-20T07:18:34;10.25;;;3.13;;
63817;SDS011;53093;55.092;73.476;2022-11-20T07:21:01;6.95;;;3.22;;
63817;SDS011;53093;55.092;73.476;2022-11-20T07:23:29;7.07;;;2.80;;
63817;SDS011;53093;55.092;73.476;2022-11-20T07:25:56;4.72;;;2.10;;
63817;SDS011;53093;55.092;73.476;2022-11-20T07:28:23;8.48;;;2.90;;
63817;SDS011;53093;55.092;73.476;2022-11-20T07:30:53;7.97;;;2.72;;
63817;SDS011;53093;55.092;73.476;2022-11-20T07:33:30;7.50;;;2.80;;
63817;SDS011;53093;55.092;73.476;2022-11-20T07:36:07;6.70;;;2.67;;
63817;SDS011;53093;55.092;73.476;2022-11-20T07:38:34;6.65;;;2.92;;
63817;SDS011;53093;55.092;73.476;2022-11-20T07:41:01;7.15;;;2.75;;
63817;SDS011;53093;55.092;73.476;2022-11-20T07:43:29;9.30;;;2.75;;
63817;SDS011;53093;55.092;73.476;2022-11-20T07:46:06;7.32;;;2.75;;
63817;SDS011;53093;55.092;73.476;2022-11-20T07:48:32;6.97;;;2.72;;
63817;SDS011;53093;55.092;73.476;2022-11-20T07:50:59;6.60;;;2.47;;
63817;SDS011;53093;55.092;73.476;2022-11-20T07:53:26;6.45;;;2.60;;
63817;SDS011;53093;55.092;73.476;2022-11-20T07:55:53;5.18;;;2.30;;
63817;SDS011;53093;55.092;73.476;2022-11-20T07:58:21;6.75;;;2.38;;
63817;SDS011;53093;55.092;73.476;2022-11-20T08:00:48;6.05;;;2.63;;
63817;SDS011;53093;55.092;73.476;2022-11-20T08:03:15;6.15;;;2.38;;
63817;SDS011;53093;55.092;73.476;2022-11-20T08:05:48;5.88;;;2.58;;
63817;SDS011;53093;55.092;73.476;2022-11-20T08:08:15;6.05;;;2.53;;
63817;SDS011;53093;55.092;73.476;2022-11-20T08:10:42;4.97;;;2.30;;
63817;SDS011;53093;55.092;73.476;2022-11-20T08:13:09;6.45;;;2.40;;
63817;SDS011;53093;55.092;73.476;2022-11-20T08:15:54;7.30;;;2.40;;
63817;SDS011;53093;55.092;73.476;2022-11-20T08:18:21;7.88;;;2.30;;
63817;SDS011;53093;55.092;73.476;2022-11-20T08:20:47;6.85;;;2.63;;
63817;SDS011;53093;55.092;73.476;2022-11-20T08:23:14;6.00;;;2.25;;
63817;SDS011;53093;55.092;73.476;2022-11-20T08:25:41;5.35;;;2.30;;
63817;SDS011;53093;55.092;73.476;2022-11-20T08:28:09;6.97;;;2.58;;
63817;SDS011;53093;55.092;73.476;2022-11-20T08:30:36;9.23;;;2.75;;
63817;SDS011;53093;55.092;73.476;2022-11-20T08:33:08;7.30;;;2.83;;
63817;SDS011;53093;55.092;73.476;2022-11-20T08:35:36;5.15;;;2.13;;
63817;SDS011;53093;55.092;73.476;2022-11-20T08:38:04;7.93;;;2.95;;
63817;SDS011;53093;55.092;73.476;2022-11-20T08:40:32;7.88;;;2.80;;
63817;SDS011;53093;55.092;73.476;2022-11-20T08:42:59;7.82;;;2.38;;
63817;SDS011;53093;55.092;73.476;2022-11-20T08:45:36;6.03;;;2.20;;
63817;SDS011;53093;55.092;73.476;2022-11-20T08:48:03;4.32;;;2.05;;
63817;SDS011;53093;55.092;73.476;2022-11-20T08:50:33;5.60;;;2.30;;
63817;SDS011;53093;55.092;73.476;2022-11-20T08:53:03;5.57;;;2.38;;
63817;SDS011;53093;55.092;73.476;2022-11-20T08:55:31;6.38;;;2.13;;
63817;SDS011;53093;55.092;73.476;2022-11-20T08:57:58;8.90;;;2.38;;
63817;SDS011;53093;55.092;73.476;2022-11-20T09:00:25;6.90;;;2.22;;
63817;SDS011;53093;55.092;73.476;2022-11-20T09:02:52;8.02;;;2.67;;
63817;SDS011;53093;55.092;73.476;2022-11-20T09:05:19;10.32;;;2.58;;
63817;SDS011;53093;55.092;73.476;2022-11-20T09:07:46;6.60;;;2.15;;
63817;SDS011;53093;55.092;73.476;2022-11-20T09:10:13;11.25;;;2.20;;
63817;SDS011;53093;55.092;73.476;2022-11-20T09:12:40;16.27;;;7.40;;
63817;SDS011;53093;55.092;73.476;2022-11-20T09:15:07;9.88;;;2.75;;
63817;SDS011;53093;55.092;73.476;2022-11-20T09:17:34;8.88;;;2.72;;
63817;SDS011;53093;55.092;73.476;2022-11-20T09:20:01;12.35;;;2.75;;
63817;SDS011;53093;55.092;73.476;2022-11-20T09:22:28;7.93;;;2.95;;
63817;SDS011;53093;55.092;73.476;2022-11-20T09:24:55;7.13;;;2.88;;
63817;SDS011;53093;55.092;73.476;2022-11-20T09:27:32;10.07;;;2.70;;
63817;SDS011;53093;55.092;73.476;2022-11-20T09:29:59;10.65;;;3.47;;
63817;SDS011;53093;55.092;73.476;2022-11-20T09:32:26;11.63;;;3.17;;
63817;SDS011;53093;55.092;73.476;2022-11-20T09:34:58;11.43;;;2.80;;
63817;SDS011;53093;55.092;73.476;2022-11-20T09:37:24;13.50;;;3.63;;
63817;SDS011;53093;55.092;73.476;2022-11-20T09:39:51;17.80;;;4.72;;
63817;SDS011;53093;55.092;73.476;2022-11-20T09:42:54;12.18;;;3.78;;
63817;SDS011;53093;55.092;73.476;2022-11-20T09:45:16;11.98;;;2.85;;
63817;SDS011;53093;55.092;73.476;2022-11-20T09:55:37;14.48;;;3.88;;
63817;SDS011;53093;55.092;73.476;2022-11-20T09:58:05;10.98;;;3.50;;
63817;SDS011;53093;55.092;73.476;2022-11-20T10:00:38;12.15;;;3.55;;
63817;SDS011;53093;55.092;73.476;2022-11-20T10:03:13;13.85;;;3.70;;
63817;SDS011;53093;55.092;73.476;2022-11-20T10:05:45;14.95;;;4.72;;
63817;SDS011;53093;55.092;73.476;2022-11-20T10:08:28;14.45;;;4.90;;
63817;SDS011;53093;55.092;73.476;2022-11-20T10:11:19;17.42;;;4.22;;
63817;SDS011;53093;55.092;73.476;2022-11-20T10:16:37;14.80;;;4.32;;
63817;SDS011;53093;55.092;73.476;2022-11-20T10:19:22;11.45;;;4.10;;
63817;SDS011;53093;55.092;73.476;2022-11-20T10:27:24;11.05;;;3.53;;
63817;SDS011;53093;55.092;73.476;2022-11-20T10:30:12;11.82;;;3.25;;
63817;SDS011;53093;55.092;73.476;2022-11-20T10:32:48;10.48;;;3.13;;
63817;SDS011;53093;55.092;73.476;2022-11-20T10:35:19;14.77;;;4.30;;
63817;SDS011;53093;55.092;73.476;2022-11-20T10:37:59;8.88;;;3.25;;
63817;SDS011;53093;55.092;73.476;2022-11-20T10:40:41;8.98;;;3.53;;
63817;SDS011;53093;55.092;73.476;2022-11-20T10:46:05;12.80;;;4.35;;
63817;SDS011;53093;55.092;73.476;2022-11-20T10:48:35;14.55;;;5.10;;
63817;SDS011;53093;55.092;73.476;2022-11-20T10:51:21;18.13;;;6.72;;
63817;SDS011;53093;55.092;73.476;2022-11-20T10:53:58;14.80;;;5.05;;
63817;SDS011;53093;55.092;73.476;2022-11-20T10:56:35;18.92;;;5.53;;
63817;SDS011;53093;55.092;73.476;2022-11-20T11:02:12;10.95;;;3.97;;
63817;SDS011;53093;55.092;73.476;2022-11-20T11:04:47;15.10;;;5.30;;
63817;SDS011;53093;55.092;73.476;2022-11-20T11:09:50;10.40;;;4.60;;
63817;SDS011;53093;55.092;73.476;2022-11-20T11:12:19;16.13;;;5.82;;
63817;SDS011;53093;55.092;73.476;2022-11-20T11:14:47;10.98;;;3.83;;
63817;SDS011;53093;55.092;73.476;2022-11-20T11:17:24;11.02;;;4.18;;
63817;SDS011;53093;55.092;73.476;2022-11-20T11:19:59;8.75;;;3.90;;
63817;SDS011;53093;55.092;73.476;2022-11-20T11:22:26;11.23;;;3.80;;
63817;SDS011;53093;55.092;73.476;2022-11-20T11:24:54;12.95;;;4.28;;
63817;SDS011;53093;55.092;73.476;2022-11-20T11:27:21;9.85;;;4.68;;
63817;SDS011;53093;55.092;73.476;2022-11-20T11:29:48;11.10;;;5.00;;
63817;SDS011;53093;55.092;73.476;2022-11-20T11:32:26;10.10;;;4.47;;
63817;SDS011;53093;55.092;73.476;2022-11-20T11:35:03;17.02;;;4.25;;
63817;SDS011;53093;55.092;73.476;2022-11-20T11:37:36;13.48;;;4.65;;
63817;SDS011;53093;55.092;73.476;2022-11-20T11:40:11;14.45;;;5.15;;
63817;SDS011;53093;55.092;73.476;2022-11-20T11:42:42;11.98;;;4.43;;
63817;SDS011;53093;55.092;73.476;2022-11-20T11:45:15;7.90;;;3.83;;
63817;SDS011;53093;55.092;73.476;2022-11-20T11:47:54;17.92;;;6.07;;
63817;SDS011;53093;55.092;73.476;2022-11-20T11:50:24;11.27;;;4.00;;
63817;SDS011;53093;55.092;73.476;2022-11-20T11:58:16;14.82;;;5.57;;
63817;SDS011;53093;55.092;73.476;2022-11-20T12:00:56;9.80;;;4.10;;
63817;SDS011;53093;55.092;73.476;2022-11-20T12:03:41;16.48;;;5.70;;
63817;SDS011;53093;55.092;73.476;2022-11-20T12:06:15;41.28;;;11.63;;
63817;SDS011;53093;55.092;73.476;2022-11-20T12:08:53;24.75;;;6.95;;
63817;SDS011;53093;55.092;73.476;2022-11-20T12:14:00;21.30;;;7.32;;
63817;SDS011;53093;55.092;73.476;2022-11-20T12:16:33;13.80;;;5.22;;
63817;SDS011;53093;55.092;73.476;2022-11-20T12:19:02;7.82;;;3.20;;
63817;SDS011;53093;55.092;73.476;2022-11-20T12:22:21;7.82;;;3.42;;
63817;SDS011;53093;55.092;73.476;2022-11-20T12:29:50;17.40;;;5.95;;
63817;SDS011;53093;55.092;73.476;2022-11-20T12:32:42;14.93;;;4.60;;
63817;SDS011;53093;55.092;73.476;2022-11-20T12:43:04;9.93;;;3.55;;
63817;SDS011;53093;55.092;73.476;2022-11-20T12:46:03;8.15;;;3.17;;
63817;SDS011;53093;55.092;73.476;2022-11-20T12:51:33;12.10;;;4.80;;
63817;SDS011;53093;55.092;73.476;2022-11-20T12:54:06;9.65;;;3.92;;
63817;SDS011;53093;55.092;73.476;2022-11-20T13:01:58;9.13;;;4.10;;
63817;SDS011;53093;55.092;73.476;2022-11-20T13:09:45;10.05;;;5.07;;
63817;SDS011;53093;55.092;73.476;2022-11-20T13:17:41;9.32;;;3.88;;
63817;SDS011;53093;55.092;73.476;2022-11-20T13:20:20;13.45;;;5.43;;
63817;SDS011;53093;55.092;73.476;2022-11-20T13:22:53;15.38;;;5.45;;
63817;SDS011;53093;55.092;73.476;2022-11-20T13:28:00;18.75;;;5.85;;
63817;SDS011;53093;55.092;73.476;2022-11-20T13:30:32;14.55;;;5.10;;
63817;SDS011;53093;55.092;73.476;2022-11-20T13:33:07;13.52;;;5.38;;
63817;SDS011;53093;55.092;73.476;2022-11-20T13:35:36;17.23;;;6.30;;
63817;SDS011;53093;55.092;73.476;2022-11-20T13:40:34;17.02;;;5.45;;
63817;SDS011;53093;55.092;73.476;2022-11-20T13:45:58;18.70;;;6.88;;
63817;SDS011;53093;55.092;73.476;2022-11-20T13:48:30;12.70;;;4.93;;
63817;SDS011;53093;55.092;73.476;2022-11-20T13:53:47;16.35;;;4.72;;
63817;SDS011;53093;55.092;73.476;2022-11-20T13:58:59;13.55;;;5.03;;
63817;SDS011;53093;55.092;73.476;2022-11-20T14:01:29;12.63;;;4.90;;
63817;SDS011;53093;55.092;73.476;2022-11-20T14:03:57;10.27;;;3.65;;
63817;SDS011;53093;55.092;73.476;2022-11-20T14:06:28;12.27;;;4.63;;
63817;SDS011;53093;55.092;73.476;2022-11-20T14:09:00;10.23;;;4.63;;
63817;SDS011;53093;55.092;73.476;2022-11-20T14:11:28;14.88;;;4.88;;
63817;SDS011;53093;55.092;73.476;2022-11-20T14:16:34;15.68;;;4.60;;
63817;SDS011;53093;55.092;73.476;2022-11-20T14:21:53;15.82;;;5.30;;
63817;SDS011;53093;55.092;73.476;2022-11-20T14:24:22;13.30;;;4.75;;
63817;SDS011;53093;55.092;73.476;2022-11-20T14:26:54;13.27;;;4.80;;
63817;SDS011;53093;55.092;73.476;2022-11-20T14:29:23;14.88;;;5.10;;
63817;SDS011;53093;55.092;73.476;2022-11-20T14:31:53;17.20;;;5.05;;
63817;SDS011;53093;55.092;73.476;2022-11-20T14:34:27;13.80;;;4.32;;
63817;SDS011;53093;55.092;73.476;2022-11-20T14:36:58;11.60;;;4.32;;
63817;SDS011;53093;55.092;73.476;2022-11-20T14:39:35;13.80;;;5.22;;
63817;SDS011;53093;55.092;73.476;2022-11-20T14:42:16;14.90;;;4.78;;
63817;SDS011;53093;55.092;73.476;2022-11-20T14:44:43;17.75;;;5.45;;
63817;SDS011;53093;55.092;73.476;2022-11-20T14:47:12;20.27;;;5.22;;
63817;SDS011;53093;55.092;73.476;2022-11-20T14:49:39;17.25;;;4.80;;
63817;SDS011;53093;55.092;73.476;2022-11-20T14:52:17;19.25;;;6.05;;
63817;SDS011;53093;55.092;73.476;2022-11-20T14:54:45;15.80;;;4.60;;
63817;SDS011;53093;55.092;73.476;2022-11-20T14:57:45;18.92;;;4.38;;
63817;SDS011;53093;55.092;73.476;2022-11-20T15:00:07;21.02;;;5.88;;
63817;SDS011;53093;55.092;73.476;2022-11-20T15:02:34;20.20;;;5.65;;
63817;SDS011;53093;55.092;73.476;2022-11-20T15:05:01;15.85;;;4.90;;
63817;SDS011;53093;55.092;73.476;2022-11-20T15:07:31;20.17;;;5.90;;
63817;SDS011;53093;55.092;73.476;2022-11-20T15:10:02;24.77;;;7.60;;
63817;SDS011;53093;55.092;73.476;2022-11-20T15:12:34;19.67;;;6.05;;
63817;SDS011;53093;55.092;73.476;2022-11-20T15:15:03;24.40;;;6.60;;
63817;SDS011;53093;55.092;73.476;2022-11-20T15:17:31;22.67;;;6.32;;
63817;SDS011;53093;55.092;73.476;2022-11-20T15:20:13;30.45;;;6.38;;
63817;SDS011;53093;55.092;73.476;2022-11-20T15:22:41;19.17;;;6.72;;
63817;SDS011;53093;55.092;73.476;2022-11-20T15:25:15;27.42;;;7.18;;
63817;SDS011;53093;55.092;73.476;2022-11-20T15:27:42;23.58;;;7.18;;
63817;SDS011;53093;55.092;73.476;2022-11-20T15:30:17;26.38;;;6.55;;
63817;SDS011;53093;55.092;73.476;2022-11-20T15:35:13;16.00;;;5.00;;
63817;SDS011;53093;55.092;73.476;2022-11-20T15:37:40;17.70;;;5.95;;
63817;SDS011;53093;55.092;73.476;2022-11-20T15:40:17;22.48;;;5.95;;
63817;SDS011;53093;55.092;73.476;2022-11-20T15:42:44;24.33;;;5.95;;
63817;SDS011;53093;55.092;73.476;2022-11-20T15:45:43;20.38;;;5.90;;
63817;SDS011;53093;55.092;73.476;2022-11-20T15:48:26;27.80;;;7.15;;
63817;SDS011;53093;55.092;73.476;2022-11-20T15:50:56;22.45;;;6.72;;
63817;SDS011;53093;55.092;73.476;2022-11-20T15:53:28;23.08;;;7.05;;
63817;SDS011;53093;55.092;73.476;2022-11-20T15:55:55;18.30;;;5.80;;
63817;SDS011;53093;55.092;73.476;2022-11-20T15:58:28;22.98;;;7.13;;
63817;SDS011;53093;55.092;73.476;2022-11-20T16:01:05;22.52;;;5.63;;
63817;SDS011;53093;55.092;73.476;2022-11-20T16:03:42;24.55;;;6.47;;
63817;SDS011;53093;55.092;73.476;2022-11-20T16:06:10;18.40;;;6.70;;
63817;SDS011;53093;55.092;73.476;2022-11-20T16:08:37;20.08;;;6.68;;
63817;SDS011;53093;55.092;73.476;2022-11-20T16:11:06;21.83;;;6.40;;
63817;SDS011;53093;55.092;73.476;2022-11-20T16:13:34;16.73;;;5.30;;
63817;SDS011;53093;55.092;73.476;2022-11-20T16:16:20;22.15;;;6.40;;